sensor_id;sensor_type;location;lat;lon;timestamp;pressure;altitude;pressure_sealevel;temperature;humidity
15050;BME280;7622;42.724;23.250;2023-04-01T00:01:57;93822.69;;;11.36;100.00
15050;BME280;7622;42.724;23.250;2023-04-01T00:04:25;93834.28;;;11.26;100.00
15050;BME280;7622;42.724;23.250;2023-04-01T00:06:51;93833.50;;;11.17;100.00
15050;BME280;7622;42.724;23.250;2023-04-01T00:09:18;93835.19;;;10.86;100.00
15050;BME280;7622;42.724;23.250;2023-04-01T00:11:45;93838.28;;;10.81;100.00
15050;BME280;7622;42.724;23.250;2023-04-01T00:14:12;93836.00;;;10.86;100.00
15050;BME280;7622;42.724;23.250;2023-04-01T00:16:39;93831.59;;;10.87;100.00
15050;BME280;7622;42.724;23.250;2023-04-01T00:19:06;93823.34;;;10.75;100.00
15050;BME280;7622;42.724;23.250;2023-04-01T00:21:34;93818.00;;;10.85;100.00
15050;BME280;7622;42.724;23.250;2023-04-01T00:24:01;93815.72;;;10.74;100.00
15050;BME280;7622;42.724;23.250;2023-04-01T00:26:27;93818.00;;;10.77;100.00
15050;BME280;7622;42.724;23.250;2023-04-01T00:28:54;93818.44;;;10.96;100.00
15050;BME280;7622;42.724;23.250;2023-04-01T00:31:21;93823.34;;;10.91;100.00
15050;BME280;7622;42.724;23.250;2023-04-01T00:33:48;93820.75;;;10.83;100.00
15050;BME280;7622;42.724;23.250;2023-04-01T00:36:17;93814.75;;;10.66;100.00
15050;BME280;7622;42.724;23.250;2023-04-01T00:38:46;93803.69;;;10.89;100.00
15050;BME280;7622;42.724;23.250;2023-04-01T00:41:14;93808.25;;;10.79;100.00
15050;BME280;7622;42.724;23.250;2023-04-01T00:43:43;93792.34;;;10.74;100.00
15050;BME280;7622;42.724;23.250;2023-04-01T00:46:10;93793.16;;;10.66;100.00
15050;BME280;7622;42.724;23.250;2023-04-01T00:48:39;93790.41;;;10.68;100.00
15050;BME280;7622;42.724;23.250;2023-04-01T00:51:10;93780.66;;;10.78;100.00
15050;BME280;7622;42.724;23.250;2023-04-01T00:53:40;93769.47;;;10.77;100.00
15050;BME280;7622;42.724;23.250;2023-04-01T00:56:12;93766.53;;;10.72;100.00
15050;BME280;7622;42.724;23.250;2023-04-01T00:58:43;93759.59;;;10.64;100.00
15050;BME280;7622;42.724;23.250;2023-04-01T01:01:10;93770.78;;;10.65;100.00
15050;BME280;7622;42.724;23.250;2023-04-01T01:03:37;93761.84;;;10.68;100.00
15050;BME280;7622;42.724;23.250;2023-04-01T01:06:15;93751.19;;;10.46;100.00
15050;BME280;7622;42.724;23.250;2023-04-01T01:09:05;93750.88;;;10.49;100.00
15050;BME280;7622;42.724;23.250;2023-04-01T01:11:37;93757.19;;;10.55;100.00
15050;BME280;7622;42.724;23.250;2023-04-01T01:14:15;93744.66;;;10.58;100.00
15050;BME280;7622;42.724;23.250;2023-04-01T01:16:50;93745.19;;;10.46;100.00
15050;BME280;7622;42.724;23.250;2023-04-01T01:19:33;93731.38;;;10.53;100.00
15050;BME280;7622;42.724;23.250;2023-04-01T01:25:07;93729.81;;;10.36;100.00
15050;BME280;7622;42.724;23.250;2023-04-01T01:27:38;93723.28;;;10.40;100.00
15050;BME280;7622;42.724;23.250;2023-04-01T01:30:17;93722.97;;;10.43;100.00
15050;BME280;7622;42.724;23.250;2023-04-01T01:33:11;93693.31;;;10.13;100.00
15050;BME280;7622;42.724;23.250;2023-04-01T01:35:45;93730.13;;;10.17;100.00
15050;BME280;7622;42.724;23.250;2023-04-01T01:38:15;93728.50;;;10.16;100.00
15050;BME280;7622;42.724;23.250;2023-04-01T01:40:46;93708.09;;;10.21;100.00
15050;BME280;7622;42.724;23.250;2023-04-01T01:43:21;93728.16;;;10.43;100.00
15050;BME280;7622;42.724;23.250;2023-04-01T01:45:53;93728.19;;;10.27;100.00
15050;BME280;7622;42.724;23.250;2023-04-01T01:48:22;93717.75;;;10.51;100.00
15050;BME280;7622;42.724;23.250;2023-04-01T01:50:51;93721.59;;;10.72;100.00
15050;BME280;7622;42.724;23.250;2023-04-01T01:53:18;93711.03;;;10.73;100.00
15050;BME280;7622;42.724;23.250;2023-04-01T01:55:46;93722.72;;;10.77;100.00
15050;BME280;7622;42.724;23.250;2023-04-01T01:58:18;93725.84;;;10.56;100.00
15050;BME280;7622;42.724;23.250;2023-04-01T02:00:49;93724.84;;;10.65;100.00
15050;BME280;7622;42.724;23.250;2023-04-01T02:03:20;93706.19;;;10.70;100.00
15050;BME280;7622;42.724;23.250;2023-04-01T02:05:48;93703.38;;;10.80;100.00
15050;BME280;7622;42.724;23.250;2023-04-01T02:08:22;93702.75;;;10.78;100.00
15050;BME280;7622;42.724;23.250;2023-04-01T02:10:56;93700.09;;;10.86;100.00
15050;BME280;7622;42.724;23.250;2023-04-01T02:13:29;93706.44;;;10.83;100.00
15050;BME280;7622;42.724;23.250;2023-04-01T02:16:00;93703.47;;;10.55;100.00
15050;BME280;7622;42.724;23.250;2023-04-01T02:18:30;93689.00;;;10.61;100.00
15050;BME280;7622;42.724;23.250;2023-04-01T02:21:00;93691.41;;;10.71;100.00
15050;BME280;7622;42.724;23.250;2023-04-01T02:23:28;93694.63;;;10.73;100.00
15050;BME280;7622;42.724;23.250;2023-04-01T02:25:56;93695.91;;;10.85;100.00
15050;BME280;7622;42.724;23.250;2023-04-01T02:28:23;93698.50;;;10.85;100.00
15050;BME280;7622;42.724;23.250;2023-04-01T02:30:51;93684.44;;;11.02;100.00
15050;BME280;7622;42.724;23.250;2023-04-01T02:33:19;93686.75;;;10.97;100.00
15050;BME280;7622;42.724;23.250;2023-04-01T02:35:47;93623.41;;;10.67;100.00
15050;BME280;7622;42.724;23.250;2023-04-01T02:38:14;93697.47;;;10.94;100.00
15050;BME280;7622;42.724;23.250;2023-04-01T02:40:48;93707.19;;;11.00;100.00
15050;BME280;7622;42.724;23.250;2023-04-01T02:43:16;93712.78;;;10.81;100.00
15050;BME280;7622;42.724;23.250;2023-04-01T02:45:44;93714.00;;;11.01;100.00
15050;BME280;7622;42.724;23.250;2023-04-01T02:48:11;93723.94;;;10.97;100.00
15050;BME280;7622;42.724;23.250;2023-04-01T02:50:38;93735.16;;;10.90;100.00
15050;BME280;7622;42.724;23.250;2023-04-01T02:53:05;93724.69;;;10.67;100.00
15050;BME280;7622;42.724;23.250;2023-04-01T02:55:32;93713.50;;;10.58;100.00
15050;BME280;7622;42.724;23.250;2023-04-01T02:58:00;93719.03;;;10.63;100.00
15050;BME280;7622;42.724;23.250;2023-04-01T03:00:27;93724.22;;;10.55;100.00
15050;BME280;7622;42.724;23.250;2023-04-01T03:02:54;93740.75;;;10.71;100.00
15050;BME280;7622;42.724;23.250;2023-04-01T03:05:22;93748.09;;;10.51;100.00
15050;BME280;7622;42.724;23.250;2023-04-01T03:07:49;93738.56;;;10.19;100.00
15050;BME280;7622;42.724;23.250;2023-04-01T03:10:16;93739.19;;;10.13;100.00
15050;BME280;7622;42.724;23.250;2023-04-01T03:12:43;93738.22;;;10.06;100.00
15050;BME280;7622;42.724;23.250;2023-04-01T03:15:11;93742.78;;;9.87;100.00
15050;BME280;7622;42.724;23.250;2023-04-01T03:17:40;93746.47;;;9.69;100.00
15050;BME280;7622;42.724;23.250;2023-04-01T03:20:08;93742.75;;;9.63;100.00
15050;BME280;7622;42.724;23.250;2023-04-01T03:22:36;93745.19;;;9.65;100.00
15050;BME280;7622;42.724;23.250;2023-04-01T03:25:03;93742.25;;;9.76;100.00
15050;BME280;7622;42.724;23.250;2023-04-01T03:27:30;93737.59;;;9.79;100.00
15050;BME280;7622;42.724;23.250;2023-04-01T03:29:57;93747.00;;;9.88;100.00
15050;BME280;7622;42.724;23.250;2023-04-01T03:32:25;93735.63;;;9.98;100.00
15050;BME280;7622;42.724;23.250;2023-04-01T03:34:52;93728.50;;;10.00;100.00
15050;BME280;7622;42.724;23.250;2023-04-01T03:37:19;93704.34;;;10.07;100.00
15050;BME280;7622;42.724;23.250;2023-04-01T03:39:46;93705.97;;;10.24;100.00
15050;BME280;7622;42.724;23.250;2023-04-01T03:42:13;93695.75;;;10.15;100.00
15050;BME280;7622;42.724;23.250;2023-04-01T03:44:40;93681.16;;;10.22;100.00
15050;BME280;7622;42.724;23.250;2023-04-01T03:47:06;93666.56;;;10.29;100.00
15050;BME280;7622;42.724;23.250;2023-04-01T03:49:35;93662.31;;;10.36;100.00
15050;BME280;7622;42.724;23.250;2023-04-01T03:52:02;93652.25;;;10.33;100.00
15050;BME280;7622;42.724;23.250;2023-04-01T03:54:29;93644.97;;;10.37;100.00
15050;BME280;7622;42.724;23.250;2023-04-01T03:56:56;93630.75;;;10.55;100.00
15050;BME280;7622;42.724;23.250;2023-04-01T03:59:23;93619.22;;;10.58;100.00
15050;BME280;7622;42.724;23.250;2023-04-01T04:01:50;93629.88;;;10.32;100.00
15050;BME280;7622;42.724;23.250;2023-04-01T04:04:16;93629.81;;;10.48;100.00
15050;BME280;7622;42.724;23.250;2023-04-01T04:06:45;93618.88;;;10.30;100.00
15050;BME280;7622;42.724;23.250;2023-04-01T04:09:11;93613.38;;;10.09;100.00
15050;BME280;7622;42.724;23.250;2023-04-01T04:11:38;93618.72;;;10.15;100.00
15050;BME280;7622;42.724;23.250;2023-04-01T04:14:05;93619.69;;;10.06;100.00
15050;BME280;7622;42.724;23.250;2023-04-01T04:16:34;93606.63;;;9.75;100.00
15050;BME280;7622;42.724;23.250;2023-04-01T04:19:02;93618.09;;;9.89;100.00
15050;BME280;7622;42.724;23.250;2023-04-01T04:21:28;93601.75;;;9.88;100.00
15050;BME280;7622;42.724;23.250;2023-04-01T04:23:58;93608.22;;;10.01;100.00
15050;BME280;7622;42.724;23.250;2023-04-01T04:26:24;93602.72;;;9.96;100.00
15050;BME280;7622;42.724;23.250;2023-04-01T04:28:51;93599.94;;;9.97;100.00
15050;BME280;7622;42.724;23.250;2023-04-01T04:31:19;93587.91;;;10.12;100.00
15050;BME280;7622;42.724;23.250;2023-04-01T04:33:46;93585.38;;;9.88;100.00
15050;BME280;7622;42.724;23.250;2023-04-01T04:36:12;93580.84;;;9.82;100.00
15050;BME280;7622;42.724;23.250;2023-04-01T04:38:40;93573.69;;;9.92;100.00
15050;BME280;7622;42.724;23.250;2023-04-01T04:41:10;93583.22;;;10.00;100.00
15050;BME280;7622;42.724;23.250;2023-04-01T04:43:38;93568.94;;;10.04;100.00
15050;BME280;7622;42.724;23.250;2023-04-01T04:46:06;93582.44;;;9.99;100.00
15050;BME280;7622;42.724;23.250;2023-04-01T04:48:33;93571.59;;;9.96;100.00
15050;BME280;7622;42.724;23.250;2023-04-01T04:51:00;93558.56;;;10.04;100.00
15050;BME280;7622;42.724;23.250;2023-04-01T04:53:27;93559.81;;;10.24;100.00
15050;BME280;7622;42.724;23.250;2023-04-01T04:55:54;93567.78;;;10.14;100.00
15050;BME280;7622;42.724;23.250;2023-04-01T04:58:22;93552.72;;;10.10;100.00
15050;BME280;7622;42.724;23.250;2023-04-01T05:00:49;93556.25;;;10.25;100.00
15050;BME280;7622;42.724;23.250;2023-04-01T05:03:15;93561.41;;;10.33;100.00
15050;BME280;7622;42.724;23.250;2023-04-01T05:05:48;93557.84;;;10.34;100.00
15050;BME280;7622;42.724;23.250;2023-04-01T05:08:15;93534.88;;;10.23;100.00
15050;BME280;7622;42.724;23.250;2023-04-01T05:10:42;93537.75;;;10.28;100.00
15050;BME280;7622;42.724;23.250;2023-04-01T05:13:08;93532.44;;;10.52;100.00
15050;BME280;7622;42.724;23.250;2023-04-01T05:15:37;93519.16;;;10.47;100.00
15050;BME280;7622;42.724;23.250;2023-04-01T05:18:04;93515.91;;;10.22;100.00
15050;BME280;7622;42.724;23.250;2023-04-01T05:20:30;93517.16;;;10.26;100.00
15050;BME280;7622;42.724;23.250;2023-04-01T05:22:57;93517.19;;;10.10;100.00
15050;BME280;7622;42.724;23.250;2023-04-01T05:25:24;93519.78;;;10.57;100.00
15050;BME280;7622;42.724;23.250;2023-04-01T05:27:51;93529.34;;;10.80;100.00
15050;BME280;7622;42.724;23.250;2023-04-01T05:30:18;93529.25;;;10.96;100.00
15050;BME280;7622;42.724;23.250;2023-04-01T05:32:46;93512.34;;;11.75;100.00
15050;BME280;7622;42.724;23.250;2023-04-01T05:35:13;93530.25;;;12.43;100.00
15050;BME280;7622;42.724;23.250;2023-04-01T05:37:40;93518.94;;;12.72;100.00
15050;BME280;7622;42.724;23.250;2023-04-01T05:40:08;93511.22;;;13.49;96.18
15050;BME280;7622;42.724;23.250;2023-04-01T05:42:35;93514.75;;;13.97;95.39
15050;BME280;7622;42.724;23.250;2023-04-01T05:45:02;93517.50;;;14.58;83.44
15050;BME280;7622;42.724;23.250;2023-04-01T05:47:29;93514.81;;;15.06;81.38
15050;BME280;7622;42.724;23.250;2023-04-01T05:49:57;93493.94;;;15.58;73.83
15050;BME280;7622;42.724;23.250;2023-04-01T05:52:24;93498.31;;;15.97;66.58
15050;BME280;7622;42.724;23.250;2023-04-01T05:54:50;93495.66;;;16.24;65.19
15050;BME280;7622;42.724;23.250;2023-04-01T05:57:17;93497.16;;;16.51;63.36
15050;BME280;7622;42.724;23.250;2023-04-01T05:59:44;93495.47;;;17.39;60.97
15050;BME280;7622;42.724;23.250;2023-04-01T06:02:17;93509.34;;;17.46;59.01
15050;BME280;7622;42.724;23.250;2023-04-01T06:04:45;93506.47;;;18.04;57.63
15050;BME280;7622;42.724;23.250;2023-04-01T06:07:14;93509.50;;;17.83;56.17
15050;BME280;7622;42.724;23.250;2023-04-01T06:09:42;93497.91;;;17.65;58.70
15050;BME280;7622;42.724;23.250;2023-04-01T06:12:29;93499.59;;;17.22;58.17
15050;BME280;7622;42.724;23.250;2023-04-01T06:15:10;93490.78;;;16.85;59.61
15050;BME280;7622;42.724;23.250;2023-04-01T06:17:55;93501.94;;;16.09;61.93
15050;BME280;7622;42.724;23.250;2023-04-01T06:20:32;93501.84;;;16.36;62.71
15050;BME280;7622;42.724;23.250;2023-04-01T06:26:12;93506.22;;;15.58;63.24
15050;BME280;7622;42.724;23.250;2023-04-01T06:29:05;93503.16;;;15.15;62.87
15050;BME280;7622;42.724;23.250;2023-04-01T06:31:57;93504.34;;;14.99;63.64
15050;BME280;7622;42.724;23.250;2023-04-01T06:34:55;93504.53;;;14.91;63.96
15050;BME280;7622;42.724;23.250;2023-04-01T06:40:44;93489.38;;;14.67;66.17
15050;BME280;7622;42.724;23.250;2023-04-01T06:43:19;93489.91;;;14.42;68.73
15050;BME280;7622;42.724;23.250;2023-04-01T06:45:52;93489.63;;;14.24;70.05
15050;BME280;7622;42.724;23.250;2023-04-01T06:48:44;93444.09;;;13.99;71.27
15050;BME280;7622;42.724;23.250;2023-04-01T06:51:21;93464.34;;;14.31;70.20
15050;BME280;7622;42.724;23.250;2023-04-01T06:53:56;93462.72;;;14.30;69.78
15050;BME280;7622;42.724;23.250;2023-04-01T06:56:28;93456.09;;;14.34;69.07
15050;BME280;7622;42.724;23.250;2023-04-01T06:58:58;93460.06;;;14.17;70.91
15050;BME280;7622;42.724;23.250;2023-04-01T07:01:32;93460.16;;;13.96;70.67
15050;BME280;7622;42.724;23.250;2023-04-01T07:04:03;93469.97;;;13.94;71.45
15050;BME280;7622;42.724;23.250;2023-04-01T07:06:35;93464.03;;;14.13;70.62
15050;BME280;7622;42.724;23.250;2023-04-01T07:09:06;93460.81;;;14.11;70.36
15050;BME280;7622;42.724;23.250;2023-04-01T07:11:38;93450.75;;;14.08;71.56
15050;BME280;7622;42.724;23.250;2023-04-01T07:14:12;93456.97;;;14.07;71.28
15050;BME280;7622;42.724;23.250;2023-04-01T07:16:43;93432.03;;;13.98;70.92
15050;BME280;7622;42.724;23.250;2023-04-01T07:19:16;93465.50;;;14.22;70.55
15050;BME280;7622;42.724;23.250;2023-04-01T07:21:48;93463.69;;;14.23;71.54
15050;BME280;7622;42.724;23.250;2023-04-01T07:24:21;93458.00;;;14.12;71.54
15050;BME280;7622;42.724;23.250;2023-04-01T07:26:53;93458.91;;;13.92;74.84
15050;BME280;7622;42.724;23.250;2023-04-01T07:29:20;93453.38;;;14.08;74.42
15050;BME280;7622;42.724;23.250;2023-04-01T07:32:01;93439.63;;;13.93;74.90
15050;BME280;7622;42.724;23.250;2023-04-01T07:34:38;93449.28;;;13.92;77.41
15050;BME280;7622;42.724;23.250;2023-04-01T07:37:12;93454.44;;;13.79;79.61
15050;BME280;7622;42.724;23.250;2023-04-01T07:39:47;93459.53;;;13.94;79.76
15050;BME280;7622;42.724;23.250;2023-04-01T07:42:24;93448.13;;;14.01;79.46
15050;BME280;7622;42.724;23.250;2023-04-01T07:45:01;93453.31;;;13.95;80.59
15050;BME280;7622;42.724;23.250;2023-04-01T07:47:39;93450.06;;;13.86;81.92
15050;BME280;7622;42.724;23.250;2023-04-01T07:50:13;93445.78;;;13.78;84.02
15050;BME280;7622;42.724;23.250;2023-04-01T07:52:50;93437.13;;;13.71;85.17
15050;BME280;7622;42.724;23.250;2023-04-01T07:55:23;93462.44;;;13.77;86.02
15050;BME280;7622;42.724;23.250;2023-04-01T07:57:58;93454.91;;;13.89;86.60
15050;BME280;7622;42.724;23.250;2023-04-01T08:00:33;93449.50;;;13.97;85.50
15050;BME280;7622;42.724;23.250;2023-04-01T08:03:22;93424.81;;;14.00;84.76
15050;BME280;7622;42.724;23.250;2023-04-01T08:05:55;93434.69;;;14.11;84.08
15050;BME280;7622;42.724;23.250;2023-04-01T08:08:30;93411.94;;;13.92;87.64
15050;BME280;7622;42.724;23.250;2023-04-01T08:11:03;93434.59;;;13.91;90.48
15050;BME280;7622;42.724;23.250;2023-04-01T08:13:39;93409.16;;;14.00;89.40
15050;BME280;7622;42.724;23.250;2023-04-01T08:16:13;93404.56;;;14.08;91.83
15050;BME280;7622;42.724;23.250;2023-04-01T08:18:47;93395.50;;;14.04;95.66
15050;BME280;7622;42.724;23.250;2023-04-01T08:21:21;93405.47;;;14.35;93.99
15050;BME280;7622;42.724;23.250;2023-04-01T08:23:52;93395.50;;;14.58;90.71
15050;BME280;7622;42.724;23.250;2023-04-01T08:26:28;93402.91;;;14.48;92.62
15050;BME280;7622;42.724;23.250;2023-04-01T08:29:00;93390.88;;;14.74;90.96
15050;BME280;7622;42.724;23.250;2023-04-01T08:31:31;93388.50;;;14.92;88.56
15050;BME280;7622;42.724;23.250;2023-04-01T08:34:02;93374.97;;;15.08;88.02
15050;BME280;7622;42.724;23.250;2023-04-01T08:36:33;93362.22;;;15.71;80.98
15050;BME280;7622;42.724;23.250;2023-04-01T08:39:05;93362.94;;;16.36;73.18
15050;BME280;7622;42.724;23.250;2023-04-01T08:42:02;93337.94;;;17.21;66.19
15050;BME280;7622;42.724;23.250;2023-04-01T08:44:59;93343.38;;;18.17;60.66
15050;BME280;7622;42.724;23.250;2023-04-01T08:47:46;93339.00;;;18.71;56.47
15050;BME280;7622;42.724;23.250;2023-04-01T08:50:27;93314.00;;;19.38;53.90
15050;BME280;7622;42.724;23.250;2023-04-01T08:53:05;93324.53;;;19.73;52.84
15050;BME280;7622;42.724;23.250;2023-04-01T08:55:44;93314.47;;;19.98;51.43
15050;BME280;7622;42.724;23.250;2023-04-01T08:58:42;93325.91;;;20.72;48.50
15050;BME280;7622;42.724;23.250;2023-04-01T09:01:23;93323.66;;;20.64;45.51
15050;BME280;7622;42.724;23.250;2023-04-01T09:04:01;93324.25;;;20.38;45.73
15050;BME280;7622;42.724;23.250;2023-04-01T09:06:37;93322.09;;;19.83;45.98
15050;BME280;7622;42.724;23.250;2023-04-01T09:09:27;93324.75;;;19.72;47.37
15050;BME280;7622;42.724;23.250;2023-04-01T09:12:31;93324.31;;;19.51;48.39
15050;BME280;7622;42.724;23.250;2023-04-01T09:15:43;93325.56;;;19.14;49.13
15050;BME280;7622;42.724;23.250;2023-04-01T09:18:29;93315.22;;;18.89;49.86
15050;BME280;7622;42.724;23.250;2023-04-01T09:21:19;93323.59;;;18.44;50.10
15050;BME280;7622;42.724;23.250;2023-04-01T09:24:23;93315.06;;;18.31;49.36
15050;BME280;7622;42.724;23.250;2023-04-01T09:27:05;93303.88;;;18.05;49.46
15050;BME280;7622;42.724;23.250;2023-04-01T09:30:00;93295.56;;;18.08;49.16
15050;BME280;7622;42.724;23.250;2023-04-01T09:32:52;93295.34;;;18.10;49.88
15050;BME280;7622;42.724;23.250;2023-04-01T09:35:25;93296.25;;;17.86;50.32
15050;BME280;7622;42.724;23.250;2023-04-01T09:38:06;93282.31;;;17.85;51.27
15050;BME280;7622;42.724;23.250;2023-04-01T09:40:48;93284.28;;;17.90;49.27
15050;BME280;7622;42.724;23.250;2023-04-01T09:43:27;93282.22;;;17.92;49.54
15050;BME280;7622;42.724;23.250;2023-04-01T09:46:15;93271.50;;;17.93;49.55
15050;BME280;7622;42.724;23.250;2023-04-01T09:51:53;93265.66;;;18.21;48.96
15050;BME280;7622;42.724;23.250;2023-04-01T09:54:34;93259.78;;;18.49;48.29
15050;BME280;7622;42.724;23.250;2023-04-01T10:00:39;93246.59;;;18.79;48.99
15050;BME280;7622;42.724;23.250;2023-04-01T10:03:37;93254.81;;;18.59;48.38
15050;BME280;7622;42.724;23.250;2023-04-01T10:06:48;93244.53;;;18.58;48.24
15050;BME280;7622;42.724;23.250;2023-04-01T10:10:07;93246.47;;;18.62;46.62
15050;BME280;7622;42.724;23.250;2023-04-01T10:13:20;93239.84;;;18.60;45.71
15050;BME280;7622;42.724;23.250;2023-04-01T10:16:07;93232.47;;;18.50;45.79
15050;BME280;7622;42.724;23.250;2023-04-01T10:18:56;93218.97;;;18.05;46.20
15050;BME280;7622;42.724;23.250;2023-04-01T10:22:13;93221.75;;;18.10;46.14
15050;BME280;7622;42.724;23.250;2023-04-01T10:25:03;93204.81;;;18.06;45.74
15050;BME280;7622;42.724;23.250;2023-04-01T10:27:49;93190.22;;;18.10;45.61
15050;BME280;7622;42.724;23.250;2023-04-01T10:30:38;93199.94;;;18.09;45.42
15050;BME280;7622;42.724;23.250;2023-04-01T10:36:41;93192.16;;;18.03;45.76
15050;BME280;7622;42.724;23.250;2023-04-01T10:39:33;93174.84;;;17.84;46.26
15050;BME280;7622;42.724;23.250;2023-04-01T10:42:40;93175.56;;;17.91;46.10
15050;BME280;7622;42.724;23.250;2023-04-01T10:45:51;93184.00;;;17.93;46.03
15050;BME280;7622;42.724;23.250;2023-04-01T10:48:47;93176.59;;;17.90;45.10
15050;BME280;7622;42.724;23.250;2023-04-01T10:51:29;93167.44;;;17.92;45.53
15050;BME280;7622;42.724;23.250;2023-04-01T10:54:25;93179.00;;;18.03;45.42
15050;BME280;7622;42.724;23.250;2023-04-01T10:57:02;93170.44;;;18.07;45.85
15050;BME280;7622;42.724;23.250;2023-04-01T11:00:05;93167.63;;;17.79;48.38
15050;BME280;7622;42.724;23.250;2023-04-01T11:03:02;93163.50;;;17.53;49.02
15050;BME280;7622;42.724;23.250;2023-04-01T11:09:26;93159.75;;;17.49;50.72
15050;BME280;7622;42.724;23.250;2023-04-01T11:18:20;93169.44;;;17.01;51.36
15050;BME280;7622;42.724;23.250;2023-04-01T11:27:32;93215.31;;;16.91;50.65
15050;BME280;7622;42.724;23.250;2023-04-01T11:30:12;93234.09;;;16.88;50.89
15050;BME280;7622;42.724;23.250;2023-04-01T11:32:57;93257.28;;;16.91;53.98
15050;BME280;7622;42.724;23.250;2023-04-01T11:38:57;93316.53;;;15.67;93.49
15050;BME280;7622;42.724;23.250;2023-04-01T11:41:34;93339.00;;;14.64;100.00
15050;BME280;7622;42.724;23.250;2023-04-01T11:44:22;93378.13;;;13.77;100.00
15050;BME280;7622;42.724;23.250;2023-04-01T11:47:13;93389.16;;;13.38;100.00
15050;BME280;7622;42.724;23.250;2023-04-01T11:49:56;93386.63;;;12.95;100.00
15050;BME280;7622;42.724;23.250;2023-04-01T11:55:26;93390.75;;;12.83;100.00
15050;BME280;7622;42.724;23.250;2023-04-01T11:58:07;93407.91;;;12.71;100.00
15050;BME280;7622;42.724;23.250;2023-04-01T12:01:03;93408.94;;;12.55;100.00
15050;BME280;7622;42.724;23.250;2023-04-01T12:04:19;93412.13;;;12.51;100.00
15050;BME280;7622;42.724;23.250;2023-04-01T12:06:53;93412.97;;;12.37;100.00
15050;BME280;7622;42.724;23.250;2023-04-01T12:09:30;93410.09;;;12.32;100.00
15050;BME280;7622;42.724;23.250;2023-04-01T12:12:14;93398.41;;;12.42;100.00
15050;BME280;7622;42.724;23.250;2023-04-01T12:14:54;93408.38;;;12.39;100.00
15050;BME280;7622;42.724;23.250;2023-04-01T12:17:34;93403.09;;;12.32;100.00
15050;BME280;7622;42.724;23.250;2023-04-01T12:20:26;93391.28;;;12.30;100.00
15050;BME280;7622;42.724;23.250;2023-04-01T12:26:04;93410.25;;;12.23;100.00
15050;BME280;7622;42.724;23.250;2023-04-01T12:28:43;93416.09;;;12.11;100.00
15050;BME280;7622;42.724;23.250;2023-04-01T12:31:33;93414.97;;;11.84;100.00
15050;BME280;7622;42.724;23.250;2023-04-01T12:34:41;93429.16;;;11.81;100.00
15050;BME280;7622;42.724;23.250;2023-04-01T12:37:13;93411.28;;;11.64;100.00
15050;BME280;7622;42.724;23.250;2023-04-01T12:39:55;93419.66;;;11.74;100.00
15050;BME280;7622;42.724;23.250;2023-04-01T12:42:43;93409.66;;;11.63;100.00
15050;BME280;7622;42.724;23.250;2023-04-01T12:45:27;93420.63;;;11.73;100.00
15050;BME280;7622;42.724;23.250;2023-04-01T12:48:22;93399.91;;;11.65;100.00
15050;BME280;7622;42.724;23.250;2023-04-01T12:51:18;93387.53;;;11.67;100.00
15050;BME280;7622;42.724;23.250;2023-04-01T12:54:17;93364.56;;;11.56;100.00
15050;BME280;7622;42.724;23.250;2023-04-01T12:57:02;93361.25;;;11.76;100.00
15050;BME280;7622;42.724;23.250;2023-04-01T12:59:47;93362.34;;;11.82;100.00
15050;BME280;7622;42.724;23.250;2023-04-01T13:02:27;93370.56;;;11.86;100.00
15050;BME280;7622;42.724;23.250;2023-04-01T13:05:17;93374.97;;;11.85;100.00
15050;BME280;7622;42.724;23.250;2023-04-01T13:07:52;93378.47;;;11.77;100.00
15050;BME280;7622;42.724;23.250;2023-04-01T13:10:58;93365.50;;;11.99;100.00
15050;BME280;7622;42.724;23.250;2023-04-01T13:13:54;93361.63;;;12.09;100.00
15050;BME280;7622;42.724;23.250;2023-04-01T13:16:27;93333.72;;;12.03;100.00
15050;BME280;7622;42.724;23.250;2023-04-01T13:18:59;93351.72;;;12.41;100.00
15050;BME280;7622;42.724;23.250;2023-04-01T13:21:38;93340.41;;;12.76;100.00
15050;BME280;7622;42.724;23.250;2023-04-01T13:24:20;93332.72;;;12.96;100.00
15050;BME280;7622;42.724;23.250;2023-04-01T13:26:55;93320.56;;;13.10;100.00
15050;BME280;7622;42.724;23.250;2023-04-01T13:29:25;93319.31;;;13.27;100.00
15050;BME280;7622;42.724;23.250;2023-04-01T13:32:16;93309.38;;;13.50;100.00
15050;BME280;7622;42.724;23.250;2023-04-01T13:34:55;93283.75;;;13.67;100.00
15050;BME280;7622;42.724;23.250;2023-04-01T13:37:36;93284.66;;;14.13;100.00
15050;BME280;7622;42.724;23.250;2023-04-01T13:40:23;93271.22;;;14.30;100.00
15050;BME280;7622;42.724;23.250;2023-04-01T13:42:56;93263.41;;;14.36;100.00
15050;BME280;7622;42.724;23.250;2023-04-01T13:45:26;93270.22;;;14.37;100.00
15050;BME280;7622;42.724;23.250;2023-04-01T13:48:08;93259.78;;;14.24;100.00
15050;BME280;7622;42.724;23.250;2023-04-01T13:51:02;93255.38;;;14.57;100.00
15050;BME280;7622;42.724;23.250;2023-04-01T13:54:03;93255.78;;;14.41;100.00
15050;BME280;7622;42.724;23.250;2023-04-01T13:56:39;93247.13;;;14.21;100.00
15050;BME280;7622;42.724;23.250;2023-04-01T14:05:42;93239.66;;;14.84;100.00
15050;BME280;7622;42.724;23.250;2023-04-01T14:08:20;93227.78;;;14.81;100.00
15050;BME280;7622;42.724;23.250;2023-04-01T14:11:02;93233.81;;;14.95;100.00
15050;BME280;7622;42.724;23.250;2023-04-01T14:13:39;93213.88;;;15.07;100.00
15050;BME280;7622;42.724;23.250;2023-04-01T14:16:25;93224.09;;;15.09;100.00
15050;BME280;7622;42.724;23.250;2023-04-01T14:19:03;93220.50;;;15.10;100.00
15050;BME280;7622;42.724;23.250;2023-04-01T14:21:38;93214.22;;;15.17;100.00
15050;BME280;7622;42.724;23.250;2023-04-01T14:24:29;93210.59;;;15.18;100.00
15050;BME280;7622;42.724;23.250;2023-04-01T14:27:37;93202.50;;;15.33;100.00
15050;BME280;7622;42.724;23.250;2023-04-01T14:30:25;93185.09;;;15.52;100.00
15050;BME280;7622;42.724;23.250;2023-04-01T14:32:59;93201.34;;;15.67;100.00
15050;BME280;7622;42.724;23.250;2023-04-01T14:35:38;93201.53;;;15.72;97.52